createdAt,value
2019-03-31T00:01:44.618Z,24.02
2019-03-31T00:04:11.046Z,24.90
2019-03-31T00:06:37.507Z,23.35
2019-03-31T00:09:05.663Z,18.95
2019-03-31T00:11:32.420Z,22.07
2019-03-31T00:13:58.881Z,19.55
2019-03-31T00:16:25.333Z,21.05
2019-03-31T00:18:51.757Z,19.82
2019-03-31T00:21:18.211Z,17.65
2019-03-31T00:23:44.663Z,18.82
2019-03-31T00:26:11.224Z,17.40
2019-03-31T00:28:37.729Z,19.55
2019-03-31T00:31:05.469Z,20.60
2019-03-31T00:33:31.932Z,23.15
2019-03-31T00:35:58.362Z,20.20
2019-03-31T00:38:24.827Z,21.80
2019-03-31T00:40:51.257Z,22.95
2019-03-31T00:43:17.784Z,22.45
2019-03-31T00:45:44.238Z,23.50
2019-03-31T00:48:10.688Z,23.92
2019-03-31T00:50:37.248Z,16.42
2019-03-31T00:53:03.724Z,15.98
2019-03-31T00:55:30.138Z,20.62
2019-03-31T00:57:56.925Z,35.10
2019-03-31T01:00:41.821Z,28.52
2019-03-31T01:03:10.357Z,22.52
2019-03-31T01:05:40.085Z,21.20
2019-03-31T01:08:06.729Z,20.40
2019-03-31T01:10:33.254Z,21.62
2019-03-31T01:13:00.080Z,17.30
2019-03-31T01:15:27.756Z,16.42
2019-03-31T01:17:54.169Z,18.10
2019-03-31T01:20:20.786Z,17.35
2019-03-31T01:22:47.431Z,17.00
2019-03-31T01:25:14.700Z,17.87
2019-03-31T01:27:41.456Z,20.30
2019-03-31T01:30:10.523Z,19.30
2019-03-31T01:32:37.316Z,17.15
2019-03-31T01:35:06.245Z,20.68
2019-03-31T01:37:32.710Z,22.30
2019-03-31T01:39:59.423Z,17.98
2019-03-31T01:42:25.900Z,19.57
2019-03-31T01:44:52.532Z,17.40
2019-03-31T01:47:19.064Z,20.70
2019-03-31T01:49:45.701Z,16.25
2019-03-31T01:52:12.286Z,16.20
2019-03-31T01:54:38.798Z,16.10
2019-03-31T01:57:05.257Z,18.67
2019-03-31T01:59:31.702Z,19.25
2019-03-31T02:02:04.045Z,22.17
2019-03-31T02:04:26.733Z,20.17
2019-03-31T02:06:53.281Z,21.23
2019-03-31T02:09:20.027Z,20.72
2019-03-31T02:11:46.581Z,23.85
2019-03-31T02:14:13.026Z,22.67
2019-03-31T02:16:39.446Z,25.17
2019-03-31T02:19:05.978Z,20.80
2019-03-31T02:21:32.440Z,20.62
2019-03-31T02:23:58.905Z,22.85
2019-03-31T02:26:25.356Z,23.87
2019-03-31T02:28:51.818Z,24.02
2019-03-31T02:31:20.143Z,22.90
2019-03-31T02:33:46.585Z,23.77
2019-03-31T02:36:13.216Z,21.15
2019-03-31T02:38:39.647Z,19.42
2019-03-31T02:41:06.077Z,26.00
2019-03-31T02:43:32.510Z,21.68
2019-03-31T02:45:58.978Z,23.50
2019-03-31T02:48:25.535Z,27.05
2019-03-31T02:50:52.085Z,19.30
2019-03-31T02:53:19.416Z,18.30
2019-03-31T02:55:46.281Z,24.72
2019-03-31T02:58:14.218Z,25.62
2019-03-31T03:00:40.893Z,26.52
2019-03-31T03:03:08.481Z,24.40
2019-03-31T03:05:38.439Z,22.75
2019-03-31T03:08:08.030Z,22.73
2019-03-31T03:10:35.854Z,26.90
2019-03-31T03:13:02.650Z,25.72
2019-03-31T03:15:29.485Z,23.35
2019-03-31T03:17:55.957Z,22.87
2019-03-31T03:20:22.387Z,25.32
2019-03-31T03:22:48.836Z,25.15
2019-03-31T03:25:16.288Z,25.37
2019-03-31T03:27:42.736Z,21.75
2019-03-31T03:30:09.388Z,23.10
2019-03-31T03:32:35.795Z,29.85
2019-03-31T03:35:02.633Z,30.08
2019-03-31T03:37:30.131Z,26.80
2019-03-31T03:39:56.572Z,37.80
2019-03-31T03:42:23.034Z,29.80
2019-03-31T03:44:49.455Z,29.32
2019-03-31T03:47:15.892Z,27.95
2019-03-31T03:49:43.345Z,26.75
2019-03-31T03:52:09.795Z,27.00
2019-03-31T03:54:36.252Z,25.12
2019-03-31T03:57:02.815Z,25.43
2019-03-31T03:59:29.220Z,23.90
2019-03-31T04:01:55.673Z,25.52
2019-03-31T04:04:22.098Z,25.82
2019-03-31T04:06:48.664Z,24.57
2019-03-31T04:09:15.101Z,26.15
2019-03-31T04:11:41.610Z,24.25
2019-03-31T04:14:08.032Z,27.27
2019-03-31T04:16:34.477Z,28.00
2019-03-31T04:19:01.069Z,24.67
2019-03-31T04:21:27.454Z,25.62
2019-03-31T04:23:53.989Z,22.62
2019-03-31T04:26:20.434Z,23.70
2019-03-31T04:28:46.983Z,25.60
2019-03-31T04:31:13.534Z,29.45
2019-03-31T04:33:50.517Z,21.93
2019-03-31T04:36:08.313Z,26.05
2019-03-31T04:38:34.882Z,27.90
2019-03-31T04:41:01.326Z,27.30
2019-03-31T04:43:27.903Z,25.60
2019-03-31T04:45:54.478Z,26.75
2019-03-31T04:48:21.093Z,24.10
2019-03-31T04:50:47.630Z,21.25
2019-03-31T04:53:14.085Z,24.18
2019-03-31T04:55:40.544Z,22.10
2019-03-31T04:58:07.005Z,25.35
2019-03-31T05:00:37.631Z,26.12
2019-03-31T05:03:06.064Z,26.05
2019-03-31T05:05:32.480Z,26.45
2019-03-31T05:07:58.959Z,24.45
2019-03-31T05:10:25.378Z,24.60
2019-03-31T05:12:51.816Z,21.10
2019-03-31T05:15:18.306Z,30.35
2019-03-31T05:17:44.740Z,28.55
2019-03-31T05:20:11.368Z,31.40
2019-03-31T05:22:37.802Z,25.68
2019-03-31T05:25:05.367Z,23.02
2019-03-31T05:27:31.939Z,24.95
2019-03-31T05:29:58.384Z,21.42
2019-03-31T05:32:24.839Z,22.25
2019-03-31T05:34:51.258Z,22.67
2019-03-31T05:37:17.690Z,22.62
2019-03-31T05:39:44.151Z,23.95
2019-03-31T05:42:10.604Z,21.97
2019-03-31T05:44:37.050Z,25.23
2019-03-31T05:47:03.534Z,22.70
2019-03-31T05:49:30.961Z,25.08
2019-03-31T05:51:57.406Z,24.32
2019-03-31T05:54:32.767Z,20.52
2019-03-31T05:57:02.597Z,21.75
2019-03-31T05:59:40.137Z,21.42
2019-03-31T06:05:18.911Z,26.30
2019-03-31T06:10:27.835Z,21.37
2019-03-31T06:12:57.545Z,26.50
2019-03-31T06:15:31.104Z,24.90
2019-03-31T06:18:01.057Z,24.37
2019-03-31T06:23:21.029Z,25.50
2019-03-31T06:25:48.862Z,26.12
2019-03-31T06:28:19.119Z,26.62
2019-03-31T06:31:00.030Z,26.50
2019-03-31T06:36:36.681Z,25.75
2019-03-31T06:39:06.449Z,31.95
2019-03-31T06:57:04.659Z,24.65
2019-03-31T06:59:39.018Z,26.10
2019-03-31T07:02:11.776Z,27.30
2019-03-31T07:04:41.223Z,25.77
2019-03-31T07:07:23.670Z,27.30
2019-03-31T07:09:51.170Z,24.45
2019-03-31T07:12:26.555Z,27.35
2019-03-31T07:15:07.371Z,25.57
2019-03-31T07:17:45.587Z,26.65
2019-03-31T07:20:12.549Z,30.12
2019-03-31T07:22:39.574Z,26.25
2019-03-31T07:25:12.823Z,27.20
2019-03-31T07:27:53.743Z,29.60
2019-03-31T07:36:38.909Z,24.07
2019-03-31T07:39:08.788Z,26.80
2019-03-31T07:42:15.691Z,24.35
2019-03-31T07:44:15.679Z,26.52
2019-03-31T07:46:54.013Z,25.75
2019-03-31T07:49:52.442Z,23.25
2019-03-31T07:52:21.624Z,26.27
2019-03-31T07:55:03.297Z,24.07
2019-03-31T08:03:28.815Z,24.63
2019-03-31T08:08:56.219Z,25.88
2019-03-31T08:11:26.058Z,25.77
2019-03-31T08:13:57.067Z,24.65
2019-03-31T08:16:37.294Z,23.55
2019-03-31T08:19:13.503Z,25.82
2019-03-31T08:24:49.964Z,19.85
2019-03-31T08:27:23.472Z,17.75
2019-03-31T08:30:01.161Z,20.03
2019-03-31T08:32:41.605Z,19.40
2019-03-31T08:35:13.768Z,15.88
2019-03-31T08:37:42.351Z,14.85
2019-03-31T08:40:12.769Z,11.78
2019-03-31T08:42:43.939Z,19.23
2019-03-31T08:45:26.017Z,15.38
2019-03-31T08:48:04.784Z,13.25
2019-03-31T08:50:37.226Z,14.60
2019-03-31T08:53:08.803Z,15.03
2019-03-31T08:58:43.661Z,18.90
2019-03-31T09:04:08.770Z,12.85
2019-03-31T09:09:37.258Z,17.37
2019-03-31T09:12:05.064Z,14.95
2019-03-31T09:26:40.002Z,14.00
2019-03-31T09:55:10.784Z,15.65
2019-03-31T09:57:43.072Z,20.20
2019-03-31T10:00:19.336Z,14.93
2019-03-31T10:02:48.650Z,16.17
2019-03-31T10:05:20.724Z,16.10
2019-03-31T10:07:48.728Z,16.65
2019-03-31T10:10:25.322Z,16.97
2019-03-31T10:12:51.922Z,16.35
2019-03-31T10:15:20.302Z,15.83
2019-03-31T10:17:46.788Z,16.73
2019-03-31T10:20:13.786Z,14.25
2019-03-31T10:22:40.371Z,12.45
2019-03-31T10:25:07.291Z,11.68
2019-03-31T10:27:34.031Z,13.10
2019-03-31T10:30:00.594Z,14.00
2019-03-31T10:32:28.798Z,11.50
2019-03-31T10:34:55.299Z,13.72
2019-03-31T10:37:21.910Z,12.53
2019-03-31T10:39:48.433Z,12.93
2019-03-31T10:42:28.031Z,17.65
2019-03-31T10:44:47.722Z,11.97
2019-03-31T10:47:15.021Z,11.53
2019-03-31T10:49:45.839Z,11.97
2019-03-31T10:55:05.814Z,13.43
2019-03-31T10:57:40.361Z,12.65
2019-03-31T11:00:12.497Z,9.30
2019-03-31T11:02:46.196Z,10.68
2019-03-31T11:05:17.810Z,12.53
2019-03-31T11:07:52.008Z,11.12
2019-03-31T11:10:24.827Z,10.08
2019-03-31T11:12:58.909Z,10.68
2019-03-31T11:15:26.896Z,11.88
2019-03-31T11:17:55.496Z,14.50
2019-03-31T11:20:30.888Z,9.90
2019-03-31T11:23:07.008Z,9.95
2019-03-31T11:25:41.098Z,9.70
2019-03-31T11:28:10.562Z,11.40
2019-03-31T11:30:37.545Z,11.15
2019-03-31T11:33:09.899Z,14.70
2019-03-31T11:35:36.528Z,10.35
2019-03-31T11:38:04.591Z,12.20
2019-03-31T11:40:40.796Z,9.05
2019-03-31T11:43:10.884Z,8.93
2019-03-31T11:45:40.462Z,10.40
2019-03-31T11:48:09.615Z,9.98
2019-03-31T11:50:44.367Z,7.37
2019-03-31T11:53:15.286Z,10.13
2019-03-31T11:58:33.864Z,7.28
2019-03-31T12:01:05.622Z,10.23
2019-03-31T12:03:35.731Z,6.55
2019-03-31T12:06:02.488Z,5.92
2019-03-31T12:08:29.587Z,7.05
2019-03-31T12:10:56.256Z,6.08
2019-03-31T12:13:22.691Z,7.67
2019-03-31T12:15:49.364Z,8.28
2019-03-31T12:18:16.861Z,6.75
2019-03-31T12:20:43.347Z,7.83
2019-03-31T12:24:13.615Z,8.33
2019-03-31T12:28:55.727Z,5.97
2019-03-31T12:31:31.201Z,11.45
2019-03-31T12:34:03.665Z,8.55
2019-03-31T12:36:30.504Z,7.00
2019-03-31T12:38:57.077Z,9.50
2019-03-31T12:41:23.599Z,5.10
2019-03-31T12:43:50.272Z,7.28
2019-03-31T12:46:16.763Z,12.10
2019-03-31T12:48:43.421Z,5.08
2019-03-31T12:51:09.987Z,5.78
2019-03-31T12:53:38.409Z,4.72
2019-03-31T12:56:05.032Z,4.45
2019-03-31T12:58:33.410Z,8.38
2019-03-31T13:01:00.148Z,4.75
2019-03-31T13:03:26.629Z,4.35
2019-03-31T13:05:53.117Z,4.90
2019-03-31T13:08:19.563Z,6.08
2019-03-31T13:10:46.024Z,6.33
2019-03-31T13:13:12.459Z,4.45
2019-03-31T13:15:38.939Z,4.92
2019-03-31T13:18:05.497Z,9.65
2019-03-31T13:20:33.934Z,5.58
2019-03-31T13:23:00.388Z,3.90
2019-03-31T13:25:26.874Z,5.95
2019-03-31T13:27:53.301Z,5.50
2019-03-31T13:30:21.889Z,6.35
2019-03-31T13:32:48.228Z,5.30
2019-03-31T13:35:14.781Z,3.60
2019-03-31T13:37:41.252Z,6.53
2019-03-31T13:40:08.913Z,4.92
2019-03-31T13:42:35.686Z,5.40
2019-03-31T13:45:04.455Z,5.50
2019-03-31T13:47:31.029Z,3.67
2019-03-31T13:49:57.502Z,5.78
2019-03-31T13:52:23.962Z,4.22
2019-03-31T13:54:50.561Z,4.80
2019-03-31T13:57:17.386Z,4.97
2019-03-31T13:59:44.588Z,6.37
2019-03-31T14:02:11.144Z,4.78
2019-03-31T14:51:06.765Z,8.63
2019-03-31T14:53:33.268Z,5.50
2019-03-31T14:56:07.192Z,7.35
2019-03-31T14:58:33.643Z,5.15
2019-03-31T15:01:00.187Z,3.08
2019-03-31T15:03:26.768Z,6.40
2019-03-31T15:05:53.304Z,6.33
2019-03-31T15:08:19.869Z,6.42
2019-03-31T15:10:46.360Z,53.55
2019-03-31T15:13:12.837Z,6.33
2019-03-31T15:15:39.347Z,4.30
2019-03-31T15:18:06.152Z,6.97
2019-03-31T15:20:32.678Z,6.10
2019-03-31T15:22:59.279Z,12.07
2019-03-31T15:25:26.120Z,5.75
2019-03-31T15:27:52.731Z,4.28
2019-03-31T15:30:19.392Z,7.65
2019-03-31T15:32:46.103Z,4.75
2019-03-31T15:35:13.894Z,4.03
2019-03-31T15:37:40.584Z,6.50
2019-03-31T15:40:07.191Z,4.37
2019-03-31T15:42:33.663Z,7.37
2019-03-31T15:45:00.380Z,6.17
2019-03-31T15:47:27.218Z,8.10
2019-03-31T15:49:53.698Z,9.48
2019-03-31T15:52:20.187Z,13.35
2019-03-31T15:54:46.644Z,4.95
2019-03-31T15:57:13.194Z,7.12
2019-03-31T15:59:50.862Z,6.15
2019-03-31T16:02:17.649Z,6.10
2019-03-31T16:04:44.212Z,5.37
2019-03-31T16:07:10.688Z,6.70
2019-03-31T16:09:37.274Z,7.78
2019-03-31T16:12:03.965Z,6.30
2019-03-31T16:14:30.566Z,7.72
2019-03-31T16:16:57.027Z,5.80
2019-03-31T16:19:23.507Z,5.50
2019-03-31T16:21:50.027Z,13.75
2019-03-31T16:24:18.419Z,4.95
2019-03-31T16:26:44.984Z,5.00
2019-03-31T16:29:22.815Z,6.25
2019-03-31T16:31:49.283Z,6.00
2019-03-31T16:34:15.803Z,6.03
2019-03-31T16:36:42.300Z,14.20
2019-03-31T16:39:18.749Z,6.75
2019-03-31T16:41:45.756Z,8.13
2019-03-31T16:44:12.335Z,6.12
2019-03-31T16:46:40.016Z,9.68
2019-03-31T16:49:47.177Z,12.33
2019-03-31T16:52:21.201Z,5.95
2019-03-31T17:05:56.940Z,8.90
2019-03-31T17:08:28.778Z,6.58
2019-03-31T17:13:47.026Z,11.60
2019-03-31T17:16:19.917Z,20.85
2019-03-31T17:18:48.644Z,12.87
2019-03-31T17:24:19.696Z,11.20
2019-03-31T17:27:00.251Z,10.60
2019-03-31T17:40:07.254Z,9.77
2019-03-31T17:42:33.909Z,12.58
2019-03-31T17:45:00.394Z,32.98
2019-03-31T17:47:26.893Z,20.35
2019-03-31T17:49:53.341Z,20.75
2019-03-31T17:52:19.820Z,8.00
2019-03-31T17:54:46.308Z,6.92
2019-03-31T17:57:12.794Z,11.90
2019-03-31T17:59:39.291Z,9.13
2019-03-31T18:02:05.763Z,7.80
2019-03-31T18:04:32.205Z,9.48
2019-03-31T18:06:58.723Z,9.78
2019-03-31T18:09:25.190Z,20.60
2019-03-31T18:11:51.651Z,10.18
2019-03-31T18:14:18.141Z,7.42
2019-03-31T18:16:44.623Z,7.95
2019-03-31T18:19:11.061Z,7.97
2019-03-31T18:21:37.733Z,8.10
2019-03-31T18:24:04.213Z,14.38
2019-03-31T18:26:30.681Z,13.30
2019-03-31T18:28:57.271Z,23.47
2019-03-31T18:31:23.858Z,12.00
2019-03-31T18:33:50.280Z,17.77
2019-03-31T18:36:17.966Z,14.47
2019-03-31T18:38:44.585Z,15.72
2019-03-31T18:41:11.118Z,21.62
2019-03-31T18:43:50.717Z,23.05
2019-03-31T18:46:06.142Z,14.07
2019-03-31T18:48:32.710Z,17.62
2019-03-31T18:50:59.173Z,16.35
2019-03-31T18:53:33.289Z,21.00
2019-03-31T18:56:07.791Z,22.73
2019-03-31T18:58:44.923Z,25.02
2019-03-31T19:01:13.394Z,22.58
2019-03-31T19:03:42.188Z,29.85
2019-03-31T19:06:16.637Z,29.75
2019-03-31T19:08:47.751Z,39.00
2019-03-31T19:11:19.275Z,41.05
2019-03-31T19:13:55.543Z,33.65
2019-03-31T19:16:21.076Z,39.73
2019-03-31T19:18:52.322Z,27.82
2019-03-31T19:21:20.749Z,35.08
2019-03-31T19:23:49.101Z,32.93
2019-03-31T19:26:20.355Z,24.32
2019-03-31T19:28:48.743Z,14.87
2019-03-31T19:31:17.195Z,17.87
2019-03-31T19:34:02.379Z,19.30
2019-03-31T19:36:43.205Z,36.55
2019-03-31T19:39:17.590Z,21.37
2019-03-31T19:41:52.184Z,23.80
2019-03-31T19:44:26.686Z,29.60
2019-03-31T19:46:56.539Z,28.47
2019-03-31T19:49:36.931Z,28.75
2019-03-31T19:52:06.543Z,22.22
2019-03-31T19:54:36.460Z,12.03
2019-03-31T19:57:20.290Z,13.18
2019-03-31T19:59:51.423Z,17.92
2019-03-31T20:02:19.892Z,15.93
2019-03-31T20:04:48.447Z,13.25
2019-03-31T20:07:35.372Z,13.68
2019-03-31T20:10:05.051Z,14.07
2019-03-31T20:12:33.669Z,10.85
2019-03-31T20:15:13.557Z,14.18
2019-03-31T20:17:45.117Z,14.95
2019-03-31T20:20:31.585Z,18.00
2019-03-31T20:23:08.063Z,25.95
2019-03-31T20:25:45.314Z,24.30
2019-03-31T20:28:16.643Z,23.27
2019-03-31T20:30:47.717Z,21.55
2019-03-31T20:33:33.977Z,21.55
2019-03-31T20:36:05.305Z,16.97
2019-03-31T20:38:39.782Z,13.45
2019-03-31T20:41:11.070Z,17.48
2019-03-31T20:43:56.102Z,13.10
2019-03-31T20:46:22.785Z,13.95
2019-03-31T20:48:50.244Z,16.17
2019-03-31T20:51:16.679Z,23.85
2019-03-31T20:53:43.253Z,22.70
2019-03-31T20:56:09.799Z,27.40
2019-03-31T20:58:36.357Z,24.65
2019-03-31T21:01:02.934Z,25.02
2019-03-31T21:03:29.477Z,22.20
2019-03-31T21:05:55.957Z,23.87
2019-03-31T21:08:22.501Z,21.07
2019-03-31T21:10:48.972Z,12.53
2019-03-31T21:13:15.431Z,14.68
2019-03-31T21:15:41.918Z,20.05
2019-03-31T21:18:09.454Z,32.93
2019-03-31T21:20:35.937Z,55.03
2019-03-31T21:23:02.475Z,46.70
2019-03-31T21:25:28.939Z,48.40
2019-03-31T21:27:55.386Z,33.85
2019-03-31T21:30:21.875Z,38.28
2019-03-31T21:32:48.314Z,25.35
2019-03-31T21:35:14.773Z,24.30
2019-03-31T21:37:41.610Z,24.07
2019-03-31T21:40:08.448Z,14.75
2019-03-31T21:42:34.890Z,10.95
2019-03-31T21:45:01.567Z,16.02
2019-03-31T21:47:28.150Z,21.48
2019-03-31T21:49:54.632Z,18.02
2019-03-31T21:52:21.095Z,17.55
2019-03-31T21:54:47.530Z,22.93
2019-03-31T21:57:15.228Z,17.75
2019-03-31T21:59:41.725Z,26.05
2019-03-31T22:02:09.387Z,20.92
2019-03-31T22:04:35.914Z,15.68
2019-03-31T22:07:02.822Z,15.93
2019-03-31T22:09:29.287Z,16.52
2019-03-31T22:11:55.721Z,17.20
2019-03-31T22:14:22.156Z,26.25
2019-03-31T22:16:48.596Z,21.62
2019-03-31T22:19:15.079Z,26.87
2019-03-31T22:21:41.533Z,23.00
2019-03-31T22:24:09.081Z,28.25
2019-03-31T22:26:35.849Z,30.23
2019-03-31T22:29:02.527Z,29.23
2019-03-31T22:31:29.052Z,28.98
2019-03-31T22:33:55.609Z,28.75
2019-03-31T22:36:22.744Z,29.90
2019-03-31T22:38:53.051Z,28.02
2019-03-31T22:41:19.604Z,34.95
2019-03-31T22:43:47.574Z,19.48
2019-03-31T22:46:14.009Z,26.15
2019-03-31T22:48:40.447Z,20.37
2019-03-31T22:51:06.954Z,12.58
2019-03-31T22:53:33.382Z,21.17
2019-03-31T22:55:59.833Z,40.43
2019-03-31T22:58:26.270Z,26.23
2019-03-31T23:00:53.573Z,43.15
2019-03-31T23:03:20.038Z,33.00
2019-03-31T23:05:46.486Z,25.10
2019-03-31T23:08:12.913Z,37.48
2019-03-31T23:10:39.394Z,56.55
2019-03-31T23:13:05.836Z,25.52
2019-03-31T23:15:33.495Z,28.98
2019-03-31T23:18:00.064Z,52.23
2019-03-31T23:20:26.506Z,51.15
2019-03-31T23:22:52.970Z,43.15
2019-03-31T23:25:19.421Z,46.37
2019-03-31T23:27:45.885Z,37.28
2019-03-31T23:30:12.605Z,19.52
2019-03-31T23:32:39.079Z,16.52
2019-03-31T23:35:06.328Z,18.25
2019-03-31T23:37:32.786Z,17.10
2019-03-31T23:39:59.232Z,16.48
2019-03-31T23:42:25.681Z,12.05
2019-03-31T23:44:52.111Z,11.65
2019-03-31T23:47:18.564Z,11.12
2019-03-31T23:49:45.031Z,16.97
2019-03-31T23:52:11.564Z,16.50
2019-03-31T23:54:38.055Z,22.60
2019-03-31T23:57:04.500Z,23.55
2019-03-31T23:59:30.963Z,25.60
